sensor_id;sensor_type;location;lat;lon;timestamp;P1;durP1;ratioP1;P2;durP2;ratioP2
38843;SDS011;24596;48.080;8.362;2023-05-19T00:01:06;12.75;;;2.72;;
38843;SDS011;24596;48.080;8.362;2023-05-19T00:03:33;8.70;;;2.85;;
38843;SDS011;24596;48.080;8.362;2023-05-19T00:06:00;9.27;;;2.55;;
38843;SDS011;24596;48.080;8.362;2023-05-19T00:08:26;7.47;;;2.28;;
38843;SDS011;24596;48.080;8.362;2023-05-19T00:10:54;13.35;;;2.55;;
38843;SDS011;24596;48.080;8.362;2023-05-19T00:13:20;9.30;;;2.60;;
38843;SDS011;24596;48.080;8.362;2023-05-19T00:15:45;9.60;;;2.90;;
38843;SDS011;24596;48.080;8.362;2023-05-19T00:18:10;8.20;;;2.45;;
38843;SDS011;24596;48.080;8.362;2023-05-19T00:20:37;5.50;;;2.22;;
38843;SDS011;24596;48.080;8.362;2023-05-19T00:23:03;10.90;;;2.90;;
38843;SDS011;24596;48.080;8.362;2023-05-19T00:25:28;7.13;;;2.72;;
38843;SDS011;24596;48.080;8.362;2023-05-19T00:27:53;10.13;;;3.00;;
38843;SDS011;24596;48.080;8.362;2023-05-19T00:30:18;8.57;;;3.25;;
38843;SDS011;24596;48.080;8.362;2023-05-19T00:32:43;9.70;;;2.80;;
38843;SDS011;24596;48.080;8.362;2023-05-19T00:35:09;8.57;;;3.08;;
38843;SDS011;24596;48.080;8.362;2023-05-19T00:37:34;9.02;;;2.50;;
38843;SDS011;24596;48.080;8.362;2023-05-19T00:39:59;9.93;;;3.22;;
38843;SDS011;24596;48.080;8.362;2023-05-19T00:42:25;9.90;;;2.83;;
38843;SDS011;24596;48.080;8.362;2023-05-19T00:44:50;11.60;;;2.83;;
38843;SDS011;24596;48.080;8.362;2023-05-19T00:47:15;11.55;;;2.70;;
38843;SDS011;24596;48.080;8.362;2023-05-19T00:49:41;5.80;;;2.40;;
38843;SDS011;24596;48.080;8.362;2023-05-19T00:52:06;10.38;;;2.85;;
38843;SDS011;24596;48.080;8.362;2023-05-19T00:54:32;10.73;;;3.17;;
38843;SDS011;24596;48.080;8.362;2023-05-19T00:56:57;14.32;;;3.17;;
38843;SDS011;24596;48.080;8.362;2023-05-19T00:59:23;9.30;;;2.78;;
38843;SDS011;24596;48.080;8.362;2023-05-19T01:01:48;12.27;;;3.55;;
38843;SDS011;24596;48.080;8.362;2023-05-19T01:04:17;8.13;;;3.08;;
38843;SDS011;24596;48.080;8.362;2023-05-19T01:06:45;8.38;;;2.97;;
38843;SDS011;24596;48.080;8.362;2023-05-19T01:09:10;12.85;;;2.95;;
38843;SDS011;24596;48.080;8.362;2023-05-19T01:11:35;7.30;;;2.67;;
38843;SDS011;24596;48.080;8.362;2023-05-19T01:14:01;11.73;;;3.13;;
38843;SDS011;24596;48.080;8.362;2023-05-19T01:16:28;8.15;;;2.80;;
38843;SDS011;24596;48.080;8.362;2023-05-19T01:19:01;8.63;;;3.00;;
38843;SDS011;24596;48.080;8.362;2023-05-19T01:24:22;8.30;;;2.78;;
38843;SDS011;24596;48.080;8.362;2023-05-19T01:31:58;9.50;;;2.90;;
38843;SDS011;24596;48.080;8.362;2023-05-19T01:34:23;13.40;;;3.25;;
38843;SDS011;24596;48.080;8.362;2023-05-19T01:36:50;9.68;;;3.08;;
38843;SDS011;24596;48.080;8.362;2023-05-19T01:39:17;11.13;;;3.10;;
38843;SDS011;24596;48.080;8.362;2023-05-19T01:41:43;9.13;;;3.25;;
38843;SDS011;24596;48.080;8.362;2023-05-19T01:44:09;10.77;;;3.35;;
38843;SDS011;24596;48.080;8.362;2023-05-19T01:46:35;14.77;;;3.75;;
38843;SDS011;24596;48.080;8.362;2023-05-19T01:49:01;12.00;;;3.35;;
38843;SDS011;24596;48.080;8.362;2023-05-19T01:51:26;14.45;;;4.03;;
38843;SDS011;24596;48.080;8.362;2023-05-19T01:53:51;9.70;;;3.60;;
38843;SDS011;24596;48.080;8.362;2023-05-19T01:56:19;11.75;;;3.42;;
38843;SDS011;24596;48.080;8.362;2023-05-19T01:58:49;10.93;;;3.10;;
38843;SDS011;24596;48.080;8.362;2023-05-19T02:09:01;13.73;;;3.60;;
38843;SDS011;24596;48.080;8.362;2023-05-19T02:13:53;7.38;;;3.20;;
38843;SDS011;24596;48.080;8.362;2023-05-19T02:16:20;7.28;;;3.17;;
38843;SDS011;24596;48.080;8.362;2023-05-19T02:18:46;10.63;;;3.22;;
38843;SDS011;24596;48.080;8.362;2023-05-19T02:21:11;11.77;;;3.28;;
38843;SDS011;24596;48.080;8.362;2023-05-19T02:23:38;14.40;;;4.25;;
38843;SDS011;24596;48.080;8.362;2023-05-19T02:26:03;15.20;;;3.60;;
38843;SDS011;24596;48.080;8.362;2023-05-19T02:28:29;12.93;;;3.90;;
38843;SDS011;24596;48.080;8.362;2023-05-19T02:30:54;9.82;;;3.70;;
38843;SDS011;24596;48.080;8.362;2023-05-19T02:33:19;14.77;;;3.60;;
38843;SDS011;24596;48.080;8.362;2023-05-19T02:35:48;11.27;;;3.47;;
38843;SDS011;24596;48.080;8.362;2023-05-19T02:38:13;12.00;;;4.35;;
38843;SDS011;24596;48.080;8.362;2023-05-19T02:40:38;11.70;;;3.92;;
38843;SDS011;24596;48.080;8.362;2023-05-19T02:43:04;12.98;;;3.92;;
38843;SDS011;24596;48.080;8.362;2023-05-19T02:45:29;15.25;;;4.65;;
38843;SDS011;24596;48.080;8.362;2023-05-19T02:47:54;10.98;;;4.07;;
38843;SDS011;24596;48.080;8.362;2023-05-19T02:50:20;12.65;;;4.18;;
38843;SDS011;24596;48.080;8.362;2023-05-19T02:52:46;11.82;;;3.42;;
38843;SDS011;24596;48.080;8.362;2023-05-19T02:55:11;9.82;;;3.92;;
38843;SDS011;24596;48.080;8.362;2023-05-19T02:57:40;15.05;;;4.00;;
38843;SDS011;24596;48.080;8.362;2023-05-19T03:00:06;13.23;;;4.40;;
38843;SDS011;24596;48.080;8.362;2023-05-19T03:02:31;10.35;;;4.03;;
38843;SDS011;24596;48.080;8.362;2023-05-19T03:04:58;10.90;;;3.58;;
38843;SDS011;24596;48.080;8.362;2023-05-19T03:07:25;12.70;;;4.05;;
38843;SDS011;24596;48.080;8.362;2023-05-19T03:09:50;12.13;;;4.43;;
38843;SDS011;24596;48.080;8.362;2023-05-19T03:12:16;7.70;;;4.28;;
38843;SDS011;24596;48.080;8.362;2023-05-19T03:14:41;13.38;;;4.18;;
38843;SDS011;24596;48.080;8.362;2023-05-19T03:17:08;11.07;;;4.10;;
38843;SDS011;24596;48.080;8.362;2023-05-19T03:19:34;13.63;;;4.78;;
38843;SDS011;24596;48.080;8.362;2023-05-19T03:21:59;11.55;;;3.92;;
38843;SDS011;24596;48.080;8.362;2023-05-19T03:24:24;10.25;;;4.00;;
38843;SDS011;24596;48.080;8.362;2023-05-19T03:26:49;15.10;;;4.78;;
38843;SDS011;24596;48.080;8.362;2023-05-19T03:29:15;10.68;;;3.92;;
38843;SDS011;24596;48.080;8.362;2023-05-19T03:31:40;12.82;;;3.90;;
38843;SDS011;24596;48.080;8.362;2023-05-19T03:34:06;13.85;;;4.78;;
38843;SDS011;24596;48.080;8.362;2023-05-19T03:36:31;13.52;;;4.88;;
38843;SDS011;24596;48.080;8.362;2023-05-19T03:38:59;11.27;;;4.43;;
38843;SDS011;24596;48.080;8.362;2023-05-19T03:41:24;12.05;;;4.43;;
38843;SDS011;24596;48.080;8.362;2023-05-19T03:43:49;12.93;;;4.78;;
38843;SDS011;24596;48.080;8.362;2023-05-19T03:46:15;10.95;;;4.15;;
38843;SDS011;24596;48.080;8.362;2023-05-19T03:48:40;11.48;;;4.10;;
38843;SDS011;24596;48.080;8.362;2023-05-19T03:51:05;10.10;;;3.75;;
38843;SDS011;24596;48.080;8.362;2023-05-19T03:53:31;10.02;;;3.80;;
38843;SDS011;24596;48.080;8.362;2023-05-19T03:55:56;9.23;;;3.50;;
38843;SDS011;24596;48.080;8.362;2023-05-19T03:58:21;11.40;;;4.05;;
38843;SDS011;24596;48.080;8.362;2023-05-19T04:00:46;8.23;;;3.70;;
38843;SDS011;24596;48.080;8.362;2023-05-19T04:03:11;16.75;;;4.70;;
38843;SDS011;24596;48.080;8.362;2023-05-19T04:05:37;8.82;;;4.25;;
38843;SDS011;24596;48.080;8.362;2023-05-19T04:08:02;10.18;;;4.20;;
38843;SDS011;24596;48.080;8.362;2023-05-19T04:10:27;12.10;;;4.13;;
38843;SDS011;24596;48.080;8.362;2023-05-19T04:12:53;14.30;;;4.68;;
38843;SDS011;24596;48.080;8.362;2023-05-19T04:15:18;10.77;;;3.97;;
38843;SDS011;24596;48.080;8.362;2023-05-19T04:17:43;12.85;;;3.85;;
38843;SDS011;24596;48.080;8.362;2023-05-19T04:20:08;9.00;;;3.85;;
38843;SDS011;24596;48.080;8.362;2023-05-19T04:22:34;12.45;;;4.05;;
38843;SDS011;24596;48.080;8.362;2023-05-19T04:24:59;14.50;;;4.97;;
38843;SDS011;24596;48.080;8.362;2023-05-19T04:27:24;9.27;;;4.40;;
38843;SDS011;24596;48.080;8.362;2023-05-19T04:29:51;12.05;;;3.70;;
38843;SDS011;24596;48.080;8.362;2023-05-19T04:32:17;11.95;;;4.38;;
38843;SDS011;24596;48.080;8.362;2023-05-19T04:34:42;12.75;;;3.88;;
38843;SDS011;24596;48.080;8.362;2023-05-19T04:42:35;8.93;;;4.00;;
38843;SDS011;24596;48.080;8.362;2023-05-19T04:45:00;10.25;;;4.18;;
38843;SDS011;24596;48.080;8.362;2023-05-19T04:47:27;9.95;;;4.10;;
38843;SDS011;24596;48.080;8.362;2023-05-19T04:49:53;13.27;;;3.92;;
38843;SDS011;24596;48.080;8.362;2023-05-19T04:52:19;8.45;;;3.78;;
38843;SDS011;24596;48.080;8.362;2023-05-19T04:54:46;10.77;;;3.85;;
38843;SDS011;24596;48.080;8.362;2023-05-19T04:57:11;12.25;;;3.85;;
38843;SDS011;24596;48.080;8.362;2023-05-19T04:59:37;9.60;;;3.78;;
38843;SDS011;24596;48.080;8.362;2023-05-19T05:02:02;10.68;;;3.92;;
38843;SDS011;24596;48.080;8.362;2023-05-19T05:04:28;16.25;;;3.70;;
38843;SDS011;24596;48.080;8.362;2023-05-19T05:06:53;8.90;;;3.63;;
38843;SDS011;24596;48.080;8.362;2023-05-19T05:09:19;7.70;;;3.58;;
38843;SDS011;24596;48.080;8.362;2023-05-19T05:11:44;10.60;;;4.20;;
38843;SDS011;24596;48.080;8.362;2023-05-19T05:14:10;10.18;;;4.13;;
38843;SDS011;24596;48.080;8.362;2023-05-19T05:16:35;8.70;;;3.85;;
38843;SDS011;24596;48.080;8.362;2023-05-19T05:19:01;6.65;;;3.40;;
38843;SDS011;24596;48.080;8.362;2023-05-19T05:21:26;6.68;;;3.50;;
38843;SDS011;24596;48.080;8.362;2023-05-19T05:23:52;9.10;;;4.10;;
38843;SDS011;24596;48.080;8.362;2023-05-19T05:26:18;7.32;;;3.45;;
38843;SDS011;24596;48.080;8.362;2023-05-19T05:28:43;7.68;;;3.63;;
38843;SDS011;24596;48.080;8.362;2023-05-19T05:31:08;7.82;;;3.63;;
38843;SDS011;24596;48.080;8.362;2023-05-19T05:33:34;9.65;;;3.30;;
38843;SDS011;24596;48.080;8.362;2023-05-19T05:35:59;7.30;;;3.30;;
38843;SDS011;24596;48.080;8.362;2023-05-19T05:38:24;8.02;;;3.78;;
38843;SDS011;24596;48.080;8.362;2023-05-19T05:40:49;8.88;;;3.40;;
38843;SDS011;24596;48.080;8.362;2023-05-19T05:43:15;8.65;;;3.72;;
38843;SDS011;24596;48.080;8.362;2023-05-19T05:45:40;9.00;;;3.92;;
38843;SDS011;24596;48.080;8.362;2023-05-19T05:48:05;7.65;;;3.25;;
38843;SDS011;24596;48.080;8.362;2023-05-19T05:50:31;7.38;;;3.85;;
38843;SDS011;24596;48.080;8.362;2023-05-19T05:52:56;11.52;;;3.42;;
38843;SDS011;24596;48.080;8.362;2023-05-19T05:55:22;11.07;;;3.83;;
38843;SDS011;24596;48.080;8.362;2023-05-19T05:57:48;9.95;;;3.47;;
38843;SDS011;24596;48.080;8.362;2023-05-19T06:00:14;8.88;;;3.20;;
38843;SDS011;24596;48.080;8.362;2023-05-19T06:02:47;8.00;;;3.50;;
38843;SDS011;24596;48.080;8.362;2023-05-19T06:05:14;8.77;;;3.55;;
38843;SDS011;24596;48.080;8.362;2023-05-19T06:07:39;10.13;;;3.65;;
38843;SDS011;24596;48.080;8.362;2023-05-19T06:10:05;9.70;;;3.60;;
38843;SDS011;24596;48.080;8.362;2023-05-19T06:12:31;8.90;;;3.38;;
38843;SDS011;24596;48.080;8.362;2023-05-19T06:14:58;14.02;;;3.60;;
38843;SDS011;24596;48.080;8.362;2023-05-19T06:17:23;8.98;;;3.40;;
38843;SDS011;24596;48.080;8.362;2023-05-19T06:19:48;8.88;;;3.25;;
38843;SDS011;24596;48.080;8.362;2023-05-19T06:22:14;9.32;;;3.63;;
38843;SDS011;24596;48.080;8.362;2023-05-19T06:24:39;8.77;;;3.58;;
38843;SDS011;24596;48.080;8.362;2023-05-19T06:27:04;9.40;;;4.00;;
38843;SDS011;24596;48.080;8.362;2023-05-19T06:29:30;11.18;;;3.40;;
38843;SDS011;24596;48.080;8.362;2023-05-19T06:31:55;10.50;;;3.92;;
38843;SDS011;24596;48.080;8.362;2023-05-19T06:34:20;9.82;;;3.40;;
38843;SDS011;24596;48.080;8.362;2023-05-19T06:36:45;6.85;;;3.13;;
38843;SDS011;24596;48.080;8.362;2023-05-19T06:39:10;14.85;;;3.70;;
38843;SDS011;24596;48.080;8.362;2023-05-19T06:41:36;7.13;;;3.35;;
38843;SDS011;24596;48.080;8.362;2023-05-19T06:44:02;8.10;;;4.75;;
38843;SDS011;24596;48.080;8.362;2023-05-19T06:46:27;8.73;;;3.55;;
38843;SDS011;24596;48.080;8.362;2023-05-19T06:48:52;9.70;;;4.50;;
38843;SDS011;24596;48.080;8.362;2023-05-19T06:51:17;7.72;;;3.42;;
38843;SDS011;24596;48.080;8.362;2023-05-19T06:53:45;7.78;;;3.40;;
38843;SDS011;24596;48.080;8.362;2023-05-19T06:56:11;8.52;;;3.60;;
38843;SDS011;24596;48.080;8.362;2023-05-19T06:58:36;9.50;;;4.18;;
38843;SDS011;24596;48.080;8.362;2023-05-19T07:01:03;9.13;;;4.05;;
38843;SDS011;24596;48.080;8.362;2023-05-19T07:03:28;7.50;;;3.88;;
38843;SDS011;24596;48.080;8.362;2023-05-19T07:05:54;9.20;;;3.55;;
38843;SDS011;24596;48.080;8.362;2023-05-19T07:08:20;8.48;;;3.92;;
38843;SDS011;24596;48.080;8.362;2023-05-19T07:10:45;8.85;;;3.72;;
38843;SDS011;24596;48.080;8.362;2023-05-19T07:13:10;11.13;;;3.88;;
38843;SDS011;24596;48.080;8.362;2023-05-19T07:15:35;7.57;;;3.10;;
38843;SDS011;24596;48.080;8.362;2023-05-19T07:18:00;7.80;;;2.88;;
38843;SDS011;24596;48.080;8.362;2023-05-19T07:20:26;7.53;;;3.70;;
38843;SDS011;24596;48.080;8.362;2023-05-19T07:22:51;9.30;;;3.53;;
38843;SDS011;24596;48.080;8.362;2023-05-19T07:25:16;10.73;;;3.45;;
38843;SDS011;24596;48.080;8.362;2023-05-19T07:27:41;10.98;;;3.60;;
38843;SDS011;24596;48.080;8.362;2023-05-19T07:30:07;11.88;;;3.72;;
38843;SDS011;24596;48.080;8.362;2023-05-19T07:32:32;7.05;;;3.42;;
38843;SDS011;24596;48.080;8.362;2023-05-19T07:34:57;9.18;;;3.33;;
38843;SDS011;24596;48.080;8.362;2023-05-19T07:37:23;8.07;;;3.10;;
38843;SDS011;24596;48.080;8.362;2023-05-19T07:39:48;8.68;;;3.33;;
38843;SDS011;24596;48.080;8.362;2023-05-19T07:42:13;9.80;;;3.30;;
38843;SDS011;24596;48.080;8.362;2023-05-19T07:44:38;8.50;;;3.28;;
38843;SDS011;24596;48.080;8.362;2023-05-19T07:47:04;8.13;;;3.35;;
38843;SDS011;24596;48.080;8.362;2023-05-19T07:49:29;9.10;;;3.30;;
38843;SDS011;24596;48.080;8.362;2023-05-19T07:51:55;10.18;;;3.88;;
38843;SDS011;24596;48.080;8.362;2023-05-19T07:54:20;8.70;;;3.80;;
38843;SDS011;24596;48.080;8.362;2023-05-19T07:56:46;10.00;;;3.10;;
38843;SDS011;24596;48.080;8.362;2023-05-19T07:59:13;9.82;;;3.08;;
38843;SDS011;24596;48.080;8.362;2023-05-19T08:01:38;8.98;;;3.35;;
38843;SDS011;24596;48.080;8.362;2023-05-19T08:04:04;11.23;;;3.67;;
38843;SDS011;24596;48.080;8.362;2023-05-19T08:06:29;7.63;;;3.90;;
38843;SDS011;24596;48.080;8.362;2023-05-19T08:08:55;10.00;;;3.67;;
38843;SDS011;24596;48.080;8.362;2023-05-19T08:11:20;7.90;;;3.45;;
38843;SDS011;24596;48.080;8.362;2023-05-19T08:13:46;10.32;;;3.30;;
38843;SDS011;24596;48.080;8.362;2023-05-19T08:16:13;11.63;;;3.20;;
38843;SDS011;24596;48.080;8.362;2023-05-19T08:18:38;9.30;;;3.38;;
38843;SDS011;24596;48.080;8.362;2023-05-19T08:21:03;9.50;;;3.75;;
38843;SDS011;24596;48.080;8.362;2023-05-19T08:23:28;8.13;;;3.45;;
38843;SDS011;24596;48.080;8.362;2023-05-19T08:25:53;8.23;;;3.22;;
38843;SDS011;24596;48.080;8.362;2023-05-19T08:28:19;7.43;;;3.33;;
38843;SDS011;24596;48.080;8.362;2023-05-19T08:30:44;7.45;;;2.70;;
38843;SDS011;24596;48.080;8.362;2023-05-19T08:33:09;9.75;;;3.60;;
38843;SDS011;24596;48.080;8.362;2023-05-19T08:35:34;7.95;;;3.55;;
38843;SDS011;24596;48.080;8.362;2023-05-19T08:38:00;8.18;;;3.25;;
38843;SDS011;24596;48.080;8.362;2023-05-19T08:40:25;7.97;;;3.38;;
38843;SDS011;24596;48.080;8.362;2023-05-19T08:42:52;7.63;;;3.05;;
38843;SDS011;24596;48.080;8.362;2023-05-19T08:45:18;9.13;;;2.95;;
38843;SDS011;24596;48.080;8.362;2023-05-19T08:47:46;8.77;;;3.42;;
38843;SDS011;24596;48.080;8.362;2023-05-19T08:50:12;7.13;;;2.92;;
38843;SDS011;24596;48.080;8.362;2023-05-19T08:57:31;16.30;;;3.63;;
38843;SDS011;24596;48.080;8.362;2023-05-19T08:59:56;11.07;;;3.38;;
38843;SDS011;24596;48.080;8.362;2023-05-19T09:02:22;8.55;;;3.53;;
38843;SDS011;24596;48.080;8.362;2023-05-19T09:04:48;10.02;;;3.28;;
38843;SDS011;24596;48.080;8.362;2023-05-19T09:07:13;9.10;;;3.28;;
38843;SDS011;24596;48.080;8.362;2023-05-19T09:09:39;9.50;;;2.80;;
38843;SDS011;24596;48.080;8.362;2023-05-19T09:12:07;8.70;;;4.05;;
38843;SDS011;24596;48.080;8.362;2023-05-19T09:14:32;9.30;;;3.08;;
38843;SDS011;24596;48.080;8.362;2023-05-19T09:16:58;7.32;;;3.28;;
38843;SDS011;24596;48.080;8.362;2023-05-19T09:19:23;12.50;;;3.28;;
38843;SDS011;24596;48.080;8.362;2023-05-19T09:21:58;7.50;;;3.03;;
38843;SDS011;24596;48.080;8.362;2023-05-19T09:24:25;6.03;;;2.90;;
38843;SDS011;24596;48.080;8.362;2023-05-19T09:26:50;9.15;;;3.60;;
38843;SDS011;24596;48.080;8.362;2023-05-19T09:29:15;8.20;;;3.22;;
38843;SDS011;24596;48.080;8.362;2023-05-19T09:31:51;7.63;;;3.17;;
38843;SDS011;24596;48.080;8.362;2023-05-19T09:34:17;7.22;;;3.38;;
38843;SDS011;24596;48.080;8.362;2023-05-19T09:36:45;8.52;;;3.25;;
38843;SDS011;24596;48.080;8.362;2023-05-19T09:39:16;14.77;;;4.38;;
38843;SDS011;24596;48.080;8.362;2023-05-19T09:41:41;10.38;;;3.97;;
38843;SDS011;24596;48.080;8.362;2023-05-19T09:44:10;11.75;;;4.32;;
38843;SDS011;24596;48.080;8.362;2023-05-19T09:46:36;9.63;;;3.20;;
38843;SDS011;24596;48.080;8.362;2023-05-19T09:49:08;9.85;;;3.83;;
38843;SDS011;24596;48.080;8.362;2023-05-19T09:53:58;11.32;;;4.03;;
38843;SDS011;24596;48.080;8.362;2023-05-19T09:56:24;11.13;;;3.95;;
38843;SDS011;24596;48.080;8.362;2023-05-19T09:58:49;9.35;;;3.15;;
38843;SDS011;24596;48.080;8.362;2023-05-19T10:01:14;12.50;;;3.38;;
38843;SDS011;24596;48.080;8.362;2023-05-19T10:03:40;9.25;;;3.55;;
38843;SDS011;24596;48.080;8.362;2023-05-19T10:06:06;13.18;;;3.90;;
38843;SDS011;24596;48.080;8.362;2023-05-19T10:08:33;13.50;;;4.60;;
38843;SDS011;24596;48.080;8.362;2023-05-19T10:10:58;11.60;;;3.83;;
38843;SDS011;24596;48.080;8.362;2023-05-19T10:13:24;10.68;;;3.40;;
38843;SDS011;24596;48.080;8.362;2023-05-19T10:15:49;11.57;;;4.35;;
38843;SDS011;24596;48.080;8.362;2023-05-19T10:18:16;8.77;;;3.67;;
38843;SDS011;24596;48.080;8.362;2023-05-19T10:20:42;9.75;;;4.00;;
38843;SDS011;24596;48.080;8.362;2023-05-19T10:23:07;7.90;;;3.80;;
38843;SDS011;24596;48.080;8.362;2023-05-19T10:25:33;11.65;;;3.58;;
38843;SDS011;24596;48.080;8.362;2023-05-19T10:28:00;7.95;;;3.40;;
38843;SDS011;24596;48.080;8.362;2023-05-19T10:30:48;9.85;;;3.67;;
38843;SDS011;24596;48.080;8.362;2023-05-19T10:33:13;8.82;;;3.30;;
38843;SDS011;24596;48.080;8.362;2023-05-19T10:40:35;12.88;;;3.55;;
38843;SDS011;24596;48.080;8.362;2023-05-19T10:45:34;9.40;;;3.25;;
38843;SDS011;24596;48.080;8.362;2023-05-19T10:48:00;11.52;;;3.63;;
38843;SDS011;24596;48.080;8.362;2023-05-19T10:50:25;8.68;;;2.80;;
38843;SDS011;24596;48.080;8.362;2023-05-19T10:52:51;8.65;;;2.97;;
38843;SDS011;24596;48.080;8.362;2023-05-19T10:55:17;9.02;;;3.05;;
38843;SDS011;24596;48.080;8.362;2023-05-19T10:58:02;8.82;;;3.50;;
38843;SDS011;24596;48.080;8.362;2023-05-19T11:00:30;8.60;;;3.55;;
38843;SDS011;24596;48.080;8.362;2023-05-19T11:03:14;8.55;;;4.07;;
38843;SDS011;24596;48.080;8.362;2023-05-19T11:05:41;11.35;;;3.65;;
38843;SDS011;24596;48.080;8.362;2023-05-19T11:08:10;14.73;;;4.15;;
38843;SDS011;24596;48.080;8.362;2023-05-19T11:10:36;8.15;;;3.80;;
38843;SDS011;24596;48.080;8.362;2023-05-19T11:13:02;9.88;;;3.67;;
38843;SDS011;24596;48.080;8.362;2023-05-19T11:15:28;10.77;;;3.95;;
38843;SDS011;24596;48.080;8.362;2023-05-19T11:17:53;9.32;;;4.15;;
38843;SDS011;24596;48.080;8.362;2023-05-19T11:20:28;11.32;;;3.95;;
38843;SDS011;24596;48.080;8.362;2023-05-19T11:23:13;14.75;;;4.00;;
38843;SDS011;24596;48.080;8.362;2023-05-19T11:25:45;11.43;;;4.43;;
38843;SDS011;24596;48.080;8.362;2023-05-19T11:28:11;8.90;;;3.40;;
38843;SDS011;24596;48.080;8.362;2023-05-19T11:30:38;8.82;;;3.63;;
38843;SDS011;24596;48.080;8.362;2023-05-19T11:33:04;11.00;;;4.35;;
38843;SDS011;24596;48.080;8.362;2023-05-19T11:35:30;8.38;;;3.50;;
38843;SDS011;24596;48.080;8.362;2023-05-19T11:37:57;9.90;;;3.80;;
38843;SDS011;24596;48.080;8.362;2023-05-19T11:40:22;8.95;;;3.72;;
38843;SDS011;24596;48.080;8.362;2023-05-19T11:42:47;10.70;;;4.00;;
38843;SDS011;24596;48.080;8.362;2023-05-19T11:45:13;9.20;;;3.35;;
38843;SDS011;24596;48.080;8.362;2023-05-19T11:47:38;6.97;;;3.80;;
38843;SDS011;24596;48.080;8.362;2023-05-19T11:50:03;9.85;;;3.83;;
38843;SDS011;24596;48.080;8.362;2023-05-19T11:52:29;10.95;;;3.60;;
38843;SDS011;24596;48.080;8.362;2023-05-19T11:54:54;8.77;;;3.90;;
38843;SDS011;24596;48.080;8.362;2023-05-19T11:57:24;7.70;;;3.53;;
38843;SDS011;24596;48.080;8.362;2023-05-19T11:59:50;8.77;;;3.30;;
38843;SDS011;24596;48.080;8.362;2023-05-19T12:02:20;10.18;;;3.58;;
38843;SDS011;24596;48.080;8.362;2023-05-19T12:04:46;9.98;;;4.03;;
38843;SDS011;24596;48.080;8.362;2023-05-19T12:07:12;10.68;;;3.45;;
38843;SDS011;24596;48.080;8.362;2023-05-19T12:09:37;10.98;;;3.50;;
38843;SDS011;24596;48.080;8.362;2023-05-19T12:12:03;10.32;;;3.70;;
38843;SDS011;24596;48.080;8.362;2023-05-19T12:14:28;8.02;;;3.60;;
38843;SDS011;24596;48.080;8.362;2023-05-19T12:16:54;9.23;;;3.88;;
38843;SDS011;24596;48.080;8.362;2023-05-19T12:19:21;10.15;;;3.72;;
38843;SDS011;24596;48.080;8.362;2023-05-19T12:21:47;9.73;;;4.15;;
38843;SDS011;24596;48.080;8.362;2023-05-19T12:24:12;16.50;;;4.00;;
38843;SDS011;24596;48.080;8.362;2023-05-19T12:26:39;11.13;;;3.78;;
38843;SDS011;24596;48.080;8.362;2023-05-19T12:29:04;9.18;;;3.83;;
38843;SDS011;24596;48.080;8.362;2023-05-19T12:31:30;10.10;;;4.10;;
38843;SDS011;24596;48.080;8.362;2023-05-19T12:33:56;16.10;;;4.25;;
38843;SDS011;24596;48.080;8.362;2023-05-19T12:36:22;11.48;;;4.38;;
38843;SDS011;24596;48.080;8.362;2023-05-19T12:38:47;12.23;;;4.20;;
38843;SDS011;24596;48.080;8.362;2023-05-19T12:41:17;9.95;;;4.50;;
38843;SDS011;24596;48.080;8.362;2023-05-19T12:43:43;8.68;;;3.83;;
38843;SDS011;24596;48.080;8.362;2023-05-19T12:46:09;13.10;;;4.10;;
38843;SDS011;24596;48.080;8.362;2023-05-19T12:48:38;7.00;;;3.80;;
38843;SDS011;24596;48.080;8.362;2023-05-19T12:51:04;14.57;;;5.07;;
38843;SDS011;24596;48.080;8.362;2023-05-19T12:53:29;9.77;;;4.50;;
38843;SDS011;24596;48.080;8.362;2023-05-19T12:55:56;9.40;;;4.57;;
38843;SDS011;24596;48.080;8.362;2023-05-19T12:58:22;12.77;;;4.57;;
38843;SDS011;24596;48.080;8.362;2023-05-19T13:00:47;11.82;;;4.65;;
38843;SDS011;24596;48.080;8.362;2023-05-19T13:03:14;12.13;;;4.28;;
38843;SDS011;24596;48.080;8.362;2023-05-19T13:05:40;11.27;;;5.05;;
38843;SDS011;24596;48.080;8.362;2023-05-19T13:08:11;7.60;;;3.90;;
38843;SDS011;24596;48.080;8.362;2023-05-19T13:10:37;9.25;;;4.00;;
38843;SDS011;24596;48.080;8.362;2023-05-19T13:13:02;10.75;;;5.30;;
38843;SDS011;24596;48.080;8.362;2023-05-19T13:15:29;10.27;;;4.30;;
38843;SDS011;24596;48.080;8.362;2023-05-19T13:18:01;19.92;;;5.28;;
38843;SDS011;24596;48.080;8.362;2023-05-19T13:20:27;10.95;;;4.72;;
38843;SDS011;24596;48.080;8.362;2023-05-19T13:22:52;11.88;;;4.88;;
38843;SDS011;24596;48.080;8.362;2023-05-19T13:25:18;10.98;;;4.53;;
38843;SDS011;24596;48.080;8.362;2023-05-19T13:27:43;10.60;;;4.20;;
38843;SDS011;24596;48.080;8.362;2023-05-19T13:30:09;11.25;;;4.75;;
38843;SDS011;24596;48.080;8.362;2023-05-19T13:32:35;12.27;;;4.72;;
38843;SDS011;24596;48.080;8.362;2023-05-19T13:35:00;11.00;;;5.47;;
38843;SDS011;24596;48.080;8.362;2023-05-19T13:37:25;12.00;;;5.60;;
38843;SDS011;24596;48.080;8.362;2023-05-19T13:39:51;12.27;;;4.53;;
38843;SDS011;24596;48.080;8.362;2023-05-19T13:42:16;10.57;;;3.97;;
38843;SDS011;24596;48.080;8.362;2023-05-19T13:44:44;11.93;;;4.60;;
38843;SDS011;24596;48.080;8.362;2023-05-19T13:47:09;10.32;;;4.68;;
38843;SDS011;24596;48.080;8.362;2023-05-19T13:49:34;13.25;;;5.20;;
38843;SDS011;24596;48.080;8.362;2023-05-19T13:51:59;11.45;;;4.88;;
38843;SDS011;24596;48.080;8.362;2023-05-19T13:54:26;12.52;;;5.28;;
38843;SDS011;24596;48.080;8.362;2023-05-19T13:56:51;10.60;;;5.25;;
38843;SDS011;24596;48.080;8.362;2023-05-19T13:59:16;10.70;;;4.60;;
38843;SDS011;24596;48.080;8.362;2023-05-19T14:01:42;10.85;;;4.60;;
38843;SDS011;24596;48.080;8.362;2023-05-19T14:04:08;12.10;;;4.82;;
38843;SDS011;24596;48.080;8.362;2023-05-19T14:06:34;8.88;;;4.50;;
38843;SDS011;24596;48.080;8.362;2023-05-19T14:08:59;11.40;;;5.18;;
38843;SDS011;24596;48.080;8.362;2023-05-19T14:11:24;10.63;;;4.97;;
38843;SDS011;24596;48.080;8.362;2023-05-19T14:13:52;9.70;;;3.65;;
38843;SDS011;24596;48.080;8.362;2023-05-19T14:16:17;9.65;;;4.45;;
38843;SDS011;24596;48.080;8.362;2023-05-19T14:18:44;9.73;;;4.68;;
38843;SDS011;24596;48.080;8.362;2023-05-19T14:21:09;11.23;;;4.60;;
38843;SDS011;24596;48.080;8.362;2023-05-19T14:23:34;11.18;;;5.00;;
38843;SDS011;24596;48.080;8.362;2023-05-19T14:25:59;7.85;;;4.28;;
38843;SDS011;24596;48.080;8.362;2023-05-19T14:28:25;13.90;;;5.47;;
38843;SDS011;24596;48.080;8.362;2023-05-19T14:30:50;13.57;;;5.47;;
38843;SDS011;24596;48.080;8.362;2023-05-19T14:33:15;11.82;;;4.90;;
38843;SDS011;24596;48.080;8.362;2023-05-19T14:35:41;11.63;;;4.95;;
38843;SDS011;24596;48.080;8.362;2023-05-19T14:38:06;11.52;;;5.07;;
38843;SDS011;24596;48.080;8.362;2023-05-19T14:40:31;11.38;;;4.97;;
38843;SDS011;24596;48.080;8.362;2023-05-19T14:42:57;10.27;;;5.07;;
38843;SDS011;24596;48.080;8.362;2023-05-19T14:45:22;11.30;;;5.47;;
38843;SDS011;24596;48.080;8.362;2023-05-19T14:47:47;8.32;;;4.25;;
38843;SDS011;24596;48.080;8.362;2023-05-19T14:50:12;11.50;;;5.18;;
38843;SDS011;24596;48.080;8.362;2023-05-19T14:52:38;14.98;;;5.13;;
38843;SDS011;24596;48.080;8.362;2023-05-19T14:55:03;10.13;;;4.97;;
38843;SDS011;24596;48.080;8.362;2023-05-19T14:57:28;9.20;;;4.30;;
38843;SDS011;24596;48.080;8.362;2023-05-19T14:59:53;13.60;;;5.78;;
38843;SDS011;24596;48.080;8.362;2023-05-19T15:02:19;11.27;;;4.50;;
38843;SDS011;24596;48.080;8.362;2023-05-19T15:04:44;10.20;;;4.75;;
38843;SDS011;24596;48.080;8.362;2023-05-19T15:07:09;11.98;;;4.75;;
38843;SDS011;24596;48.080;8.362;2023-05-19T15:09:35;14.10;;;5.43;;
38843;SDS011;24596;48.080;8.362;2023-05-19T15:12:00;15.93;;;5.53;;